Detall de PIREP

Printer-friendly versionPDF version

[2017/02/25 16:59:00]
Flight IATA:CT1001
Pilot Number:012
Company ICAO:CAT
Aircraft Type:C750/F
PAX:4
Departing Airport: LEMH
Destination Airport: LIEO
Alternate Airport:LIEA
Online: VATSIM
Route:MORSS UM603 ELSAG ALG L5 POZZO
Flight Level:F280
No Slew and time accel
No pause
Crash detect
Detect pilot in Cockpit between each 30 and 45 minutes
16:59 Zero fuel Weight: 23031 Lbs, Fuel Weight: 4503 Lbs
16:59 VATSIM:LEMH 251630Z 36009KT CAVOK 12/07 Q1019
16:59 VATSIM:LIEO 251620Z 35008KT 310V030 9999 FEW020 BKN035 13/06 Q1016
17:00 ISLAND HOP FLY-IN LIEO-LEMH
17:00 Parking Brakes off
17:03 Take-off
17:03 Take off Weight: 27461 Lbs
17:03 Wind: 359º @ 009 Knots Heading: 008º
17:03 POS N39º 51´ 46´´ E004º 13´ 07´´
17:03 Gear Up: 170 Knots
17:03 Flaps:3 at 170 Knots
17:03 Flaps:2 at 198 Knots
17:04 Flaps:0 at 225 Knots
17:18 Wind:024º@044 Knots Heading: 084º Ground Speed: 327 Knots Altitude 26108 ft
17:18 TOC
17:18 Fuel Weight: 3925 Lb
17:33 Wind:030º@067 Knots Heading: 069º Ground Speed: 426 Knots Altitude 28103 ft
17:34 TOD
17:34 Fuel Weight: 3447 Lb
17:48 Wind:060º@016 Knots Heading: 071º Ground Speed: 258 Knots Altitude 7844 ft
17:56 Flaps:2 at 174 Knots
17:57 Flaps:3 at 201 Knots
17:57 Gear Down: 200 Knots
17:58 Flaps:4 at 165 Knots
17:58 Flaps:5 at 144 Knots
18:00 TouchDown:Rate -142 ft/min Speed: 111 Knots
18:01 VATSIM:LIEO 251720Z 35013KT 330V030 9999 FEW020 BKN035 13/06 Q1017
18:01 Land
18:01 Wind:009º@013 Knots
18:01 Heading: 240º
18:01 Flight Duration: 00:58
18:01 Landing Weight: 26094 Lbs
18:01 POS N40º 53´ 43´´ E009º 30´ 41´´
18:05 Parking brakes on
18:05 Block to Block Duration: 01:05
18:05 Final Fuel: 3013 Lbls
18:05 Spent Fuel: 1490 Lbls
18:05 Flight Length: 289 NM
18:05 TOD Land Length: 121 NM

Exportar CSV

Powered by Drupal - Modified by Danger4k